Time;durP1;ratioP1;P1;durP2;ratioP2;P2;SDS_P1;SDS_P2;PMS_P1;PMS_P2;Temp;Humidity;BMP_temperature;BMP_pressure;BME280_temperature;BME280_humidity;BME280_pressure;Samples;Min_cycle;Max_cycle;Signal;HPM_P1;HPM_P2
2023/05/03 00:02:15;;;;;;;;;;;;;;;24.63;36.05;99453.40;1899794;75;20197;-58
2023/05/03 00:05:03;;;;;;;;;;;;;;;24.63;36.04;99441.88;1902235;75;20123;-58
2023/05/03 00:07:51;;;;;;;;;;;;;;;24.62;36.12;99446.27;1909118;75;20118;-56
2023/05/03 00:10:39;;;;;;;;;;;;;;;24.63;36.10;99447.38;1909847;75;20123;-56
2023/05/03 00:13:26;;;;;;;;;;;;;;;24.65;36.10;99449.86;1913682;75;20224;-58
2023/05/03 00:16:14;;;;;;;;;;;;;;;24.64;36.11;99451.77;1900609;75;20209;-60
2023/05/03 00:19:01;;;;;;;;;;;;;;;24.63;36.13;99449.28;1889539;74;20126;-60
2023/05/03 00:21:49;;;;;;;;;;;;;;;24.59;36.17;99452.24;1912111;74;20164;-60
2023/05/03 00:24:36;;;;;;;;;;;;;;;24.57;36.26;99449.75;1908524;75;20146;-61
2023/05/03 00:27:23;;;;;;;;;;;;;;;24.59;36.28;99448.12;1902327;75;20142;-61
2023/05/03 00:30:12;;;;;;;;;;;;;;;24.58;36.29;99452.77;1898179;75;20170;-60
2023/05/03 00:32:59;;;;;;;;;;;;;;;24.60;36.28;99450.61;1895358;75;20145;-60
2023/05/03 00:35:47;;;;;;;;;;;;;;;24.62;36.27;99449.81;1886914;76;20140;-60
2023/05/03 00:38:34;;;;;;;;;;;;;;;24.60;36.25;99450.61;1887758;76;20182;-60
2023/05/03 00:41:23;;;;;;;;;;;;;;;24.62;36.26;99454.50;1893778;75;20158;-60
2023/05/03 00:44:11;;;;;;;;;;;;;;;24.60;36.28;99452.52;1897401;75;20116;-61
2023/05/03 00:46:58;;;;;;;;;;;;;;;24.61;36.28;99454.20;1900531;75;20177;-60
2023/05/03 00:49:45;;;;;;;;;;;;;;;24.60;36.28;99449.77;1913544;75;20134;-62
2023/05/03 00:52:34;;;;;;;;;;;;;;;24.61;36.26;99450.08;1897922;75;20190;-60
2023/05/03 00:55:22;;;;;;;;;;;;;;;24.60;36.28;99442.38;1914992;75;20115;-61
2023/05/03 00:58:10;;;;;;;;;;;;;;;24.59;36.31;99445.37;1887328;76;20144;-60
2023/05/03 01:00:58;;;;;;;;;;;;;;;24.60;36.30;99441.53;1896259;75;20121;-60
2023/05/03 01:03:47;;;;;;;;;;;;;;;24.57;36.33;99435.19;1917986;75;20162;-60
2023/05/03 01:06:39;;;;;;;;;;;;;;;24.57;36.33;99436.02;1906192;75;20173;-61
2023/05/03 01:09:40;;;;;;;;;;;;;;;24.46;36.38;99420.43;1887381;76;20173;-61
2023/05/03 01:12:32;;;;;;;;;;;;;;;24.56;36.41;99433.50;1895182;75;20118;-60
2023/05/03 01:15:29;;;;;;;;;;;;;;;24.53;36.44;99431.25;1918941;75;20118;-61
2023/05/03 01:18:18;;;;;;;;;;;;;;;24.51;36.47;99432.88;1898303;75;20119;-60
2023/05/03 01:21:07;;;;;;;;;;;;;;;24.51;36.48;99427.39;1864119;76;20213;-61
2023/05/03 01:23:56;;;;;;;;;;;;;;;24.52;36.45;99427.69;1849117;78;20215;-61
2023/05/03 01:26:43;;;;;;;;;;;;;;;24.52;36.47;99433.19;1852848;77;20306;-61
2023/05/03 01:29:30;;;;;;;;;;;;;;;24.53;36.50;99433.99;1869762;76;20109;-61
2023/05/03 01:32:20;;;;;;;;;;;;;;;24.54;36.49;99435.14;1866063;76;20182;-61
2023/05/03 01:35:15;;;;;;;;;;;;;;;24.55;36.46;99436.78;1870110;76;20123;-61
2023/05/03 01:38:03;;;;;;;;;;;;;;;24.53;36.46;99438.95;1875205;76;20142;-60
2023/05/03 01:40:52;;;;;;;;;;;;;;;24.52;36.48;99431.81;1860031;76;20217;-61
2023/05/03 01:43:40;;;;;;;;;;;;;;;24.50;36.50;99431.23;1864127;76;20204;-59
2023/05/03 01:46:27;;;;;;;;;;;;;;;24.50;36.56;99427.11;1871662;76;20221;-60
2023/05/03 01:49:15;;;;;;;;;;;;;;;24.53;36.53;99432.09;1870170;76;20117;-60
2023/05/03 01:52:02;;;;;;;;;;;;;;;24.52;36.51;99431.81;1849192;78;20213;-60
2023/05/03 01:54:49;;;;;;;;;;;;;;;24.51;36.54;99432.88;1861827;76;20192;-60
2023/05/03 01:57:37;;;;;;;;;;;;;;;24.51;36.56;99441.12;1859624;76;20240;-60
2023/05/03 02:00:24;;;;;;;;;;;;;;;24.51;36.55;99441.12;1859227;76;20135;-61
2023/05/03 02:03:12;;;;;;;;;;;;;;;24.51;36.56;99443.86;1864529;76;20123;-60
2023/05/03 02:06:00;;;;;;;;;;;;;;;24.53;36.57;99448.56;1859347;76;20117;-61
2023/05/03 02:08:48;;;;;;;;;;;;;;;24.53;36.56;99444.44;1859545;76;20223;-60
2023/05/03 02:11:36;;;;;;;;;;;;;;;24.53;36.57;99447.72;1861110;76;20181;-61
2023/05/03 02:14:23;;;;;;;;;;;;;;;24.51;36.62;99447.98;1851755;77;20176;-61
2023/05/03 02:17:11;;;;;;;;;;;;;;;24.51;36.64;99447.98;1857587;76;20155;-61
2023/05/03 02:19:59;;;;;;;;;;;;;;;24.51;36.65;99451.27;1876845;76;20154;-62
2023/05/03 02:22:46;;;;;;;;;;;;;;;24.50;36.63;99451.83;1827718;78;20199;-61
2023/05/03 02:25:33;;;;;;;;;;;;;;;24.48;36.62;99451.78;1808320;79;20211;-60
2023/05/03 02:28:21;;;;;;;;;;;;;;;24.49;36.68;99452.89;1814261;78;20137;-60
2023/05/03 02:31:09;;;;;;;;;;;;;;;24.49;36.66;99453.43;1820467;78;20118;-60
2023/05/03 02:33:57;;;;;;;;;;;;;;;24.48;36.69;99450.41;1841525;77;20125;-62
2023/05/03 02:36:45;;;;;;;;;;;;;;;24.49;36.68;99449.31;1843275;78;20149;-62
2023/05/03 02:39:32;;;;;;;;;;;;;;;24.49;36.70;99452.89;1834211;77;20159;-60
2023/05/03 02:42:20;;;;;;;;;;;;;;;24.46;36.75;99449.80;1822090;78;20256;-61
2023/05/03 02:45:09;;;;;;;;;;;;;;;24.47;36.71;99451.47;1818696;78;20127;-61
2023/05/03 02:47:57;;;;;;;;;;;;;;;24.48;36.71;99454.53;1839705;77;20169;-60
2023/05/03 02:50:45;;;;;;;;;;;;;;;24.48;36.73;99457.27;1839659;77;20127;-60
2023/05/03 02:53:33;;;;;;;;;;;;;;;24.47;36.71;99457.80;1845617;77;20148;-61
2023/05/03 02:56:21;;;;;;;;;;;;;;;24.41;36.75;99441.50;1820796;78;20168;-61
2023/05/03 02:59:09;;;;;;;;;;;;;;;24.47;36.77;99456.97;1856632;76;20209;-60
2023/05/03 03:01:56;;;;;;;;;;;;;;;24.49;36.71;99450.69;1834095;78;20175;-60
2023/05/03 03:04:46;;;;;;;;;;;;;;;24.47;36.74;99449.57;1814033;79;20183;-61
2023/05/03 03:07:33;;;;;;;;;;;;;;;24.46;36.73;99448.42;1839409;78;20128;-60
2023/05/03 03:10:20;;;;;;;;;;;;;;;24.47;36.74;99445.45;1840075;78;20190;-61
2023/05/03 03:13:08;;;;;;;;;;;;;;;24.47;36.79;99444.61;1842869;77;20154;-61
2023/05/03 03:15:56;;;;;;;;;;;;;;;24.48;36.76;99444.92;1846586;77;20172;-60
2023/05/03 03:18:44;;;;;;;;;;;;;;;24.47;36.78;99449.57;1837075;77;20125;-61
2023/05/03 03:21:34;;;;;;;;;;;;;;;24.49;36.77;99452.05;1838573;77;20123;-61
2023/05/03 03:24:22;;;;;;;;;;;;;;;24.48;36.78;99452.59;1848129;77;20125;-60
2023/05/03 03:27:10;;;;;;;;;;;;;;;24.46;36.83;99457.50;1871813;77;20122;-62
2023/05/03 03:29:58;;;;;;;;;;;;;;;24.46;36.82;99454.75;1835511;77;20178;-62
2023/05/03 03:32:46;;;;;;;;;;;;;;;24.47;36.79;99463.30;1860023;77;20255;-61
2023/05/03 03:35:36;;;;;;;;;;;;;;;24.49;36.79;99457.02;1833383;77;20148;-60
2023/05/03 03:38:24;;;;;;;;;;;;;;;24.48;36.81;99456.70;1827575;78;20157;-60
2023/05/03 03:41:13;;;;;;;;;;;;;;;24.47;36.84;99460.55;1828507;78;20147;-60
2023/05/03 03:44:00;;;;;;;;;;;;;;;24.46;36.90;99464.37;1805385;79;20172;-60
2023/05/03 03:46:49;;;;;;;;;;;;;;;24.47;36.91;99465.20;1821830;78;20181;-61
2023/05/03 03:49:37;;;;;;;;;;;;;;;24.49;36.94;99467.16;1827524;77;20169;-61
2023/05/03 03:52:25;;;;;;;;;;;;;;;24.48;36.91;99466.31;1870077;76;20168;-60
2023/05/03 03:55:13;;;;;;;;;;;;;;;24.47;36.91;99466.58;1836034;77;20124;-60
2023/05/03 03:58:00;;;;;;;;;;;;;;;24.47;36.92;99467.95;1820528;78;20127;-60
2023/05/03 04:00:49;;;;;;;;;;;;;;;24.48;36.94;99471.81;1840655;77;20121;-60
2023/05/03 04:03:37;;;;;;;;;;;;;;;24.47;36.91;99471.53;1856126;77;20168;-60
2023/05/03 04:06:26;;;;;;;;;;;;;;;24.45;36.97;99481.94;1855702;77;20121;-59
2023/05/03 04:09:16;;;;;;;;;;;;;;;24.48;36.88;99477.30;1840179;78;20186;-61
2023/05/03 04:12:05;;;;;;;;;;;;;;;24.45;36.88;99473.70;1832699;77;20163;-60
2023/05/03 04:14:55;;;;;;;;;;;;;;;24.47;36.99;99474.81;1836176;78;20137;-60
2023/05/03 04:17:43;;;;;;;;;;;;;;;24.46;36.99;99479.47;1841405;78;20232;-60
2023/05/03 04:20:32;;;;;;;;;;;;;;;24.45;37.00;99472.33;1844209;77;20168;-61
2023/05/03 04:23:21;;;;;;;;;;;;;;;24.43;37.01;99482.73;1846229;76;20123;-61
2023/05/03 04:26:09;;;;;;;;;;;;;;;24.41;37.05;99476.63;1839710;77;20153;-60
2023/05/03 04:28:57;;;;;;;;;;;;;;;24.43;37.01;99477.77;1822065;78;20371;-60
2023/05/03 04:31:46;;;;;;;;;;;;;;;24.43;37.01;99480.52;1806528;78;20154;-60
2023/05/03 04:34:34;;;;;;;;;;;;;;;24.43;37.04;99479.98;1811675;79;20172;-60
2023/05/03 04:37:23;;;;;;;;;;;;;;;24.43;37.05;99477.77;1812793;79;20219;-59
2023/05/03 04:40:11;;;;;;;;;;;;;;;24.43;37.04;99488.22;1810951;79;20198;-60
2023/05/03 04:43:00;;;;;;;;;;;;;;;24.44;36.94;99491.78;1831057;78;20119;-60
2023/05/03 04:45:51;;;;;;;;;;;;;;;24.40;36.53;99490.08;1843392;77;20118;-59
2023/05/03 04:48:40;;;;;;;;;;;;;;;24.41;36.12;99497.22;1851779;77;20151;-60
2023/05/03 04:51:28;;;;;;;;;;;;;;;24.42;36.62;99493.94;1841362;78;20162;-60
2023/05/03 04:54:17;;;;;;;;;;;;;;;24.44;36.75;99495.36;1835564;78;20288;-61
2023/05/03 04:57:04;;;;;;;;;;;;;;;24.45;36.79;99501.16;1858821;76;20113;-60
2023/05/03 04:59:52;;;;;;;;;;;;;;;24.41;36.78;99506.02;1854986;76;20173;-61
2023/05/03 05:02:40;;;;;;;;;;;;;;;24.35;36.39;99510.56;1855233;77;20123;-61
2023/05/03 05:05:28;;;;;;;;;;;;;;;24.36;36.22;99511.41;1823660;78;20235;-61
2023/05/03 05:08:19;;;;;;;;;;;;;;;24.37;36.58;99513.06;1827692;78;20223;-61
2023/05/03 05:11:08;;;;;;;;;;;;;;;24.36;36.69;99508.66;1858804;77;20125;-62
2023/05/03 05:13:57;;;;;;;;;;;;;;;24.33;36.75;99514.64;1819289;78;20148;-62
2023/05/03 05:16:45;;;;;;;;;;;;;;;24.36;36.77;99509.50;1832247;77;20165;-62
2023/05/03 05:19:34;;;;;;;;;;;;;;;24.38;36.76;99511.45;1834973;77;20150;-61
2023/05/03 05:22:22;;;;;;;;;;;;;;;24.38;36.78;99515.58;1814065;77;20124;-61
2023/05/03 05:25:11;;;;;;;;;;;;;;;24.42;36.73;99515.38;1859973;76;20184;-54
2023/05/03 05:28:00;;;;;;;;;;;;;;;24.36;36.81;99512.78;1867198;77;20125;-55
2023/05/03 05:30:48;;;;;;;;;;;;;;;24.38;36.77;99512.83;1867647;77;20184;-54
2023/05/03 05:33:36;;;;;;;;;;;;;;;24.42;36.73;99513.16;1818998;78;20194;-54
2023/05/03 05:36:24;;;;;;;;;;;;;;;24.36;36.82;99514.16;1852565;77;20145;-55
2023/05/03 05:39:12;;;;;;;;;;;;;;;24.34;36.90;99517.69;1838747;78;20154;-53
2023/05/03 05:42:01;;;;;;;;;;;;;;;24.34;36.97;99519.88;1834918;78;20177;-51
2023/05/03 05:44:51;;;;;;;;;;;;;;;24.36;36.99;99518.27;1829309;78;20212;-54
2023/05/03 05:47:39;;;;;;;;;;;;;;;24.38;36.90;99522.44;1847489;78;20300;-54
2023/05/03 05:50:27;;;;;;;;;;;;;;;24.42;36.90;99518.66;1843834;78;20211;-51
2023/05/03 05:53:16;;;;;;;;;;;;;;;24.38;36.95;99524.34;1833650;78;20163;-51
2023/05/03 05:56:07;;;;;;;;;;;;;;;24.37;37.03;99527.63;1847510;78;20226;-49
2023/05/03 05:58:56;;;;;;;;;;;;;;;24.35;37.01;99530.32;1829727;78;20150;-53
2023/05/03 06:01:45;;;;;;;;;;;;;;;24.34;37.08;99531.42;1848339;78;20170;-51
2023/05/03 06:04:34;;;;;;;;;;;;;;;24.34;37.21;99529.48;1827710;78;20132;-49
2023/05/03 06:07:23;;;;;;;;;;;;;;;24.37;37.19;99530.91;1847685;78;20178;-52
2023/05/03 06:10:11;;;;;;;;;;;;;;;24.39;37.18;99527.37;1848554;78;20204;-54
2023/05/03 06:13:00;;;;;;;;;;;;;;;24.40;37.24;99524.40;1843106;78;20127;-53
2023/05/03 06:15:48;;;;;;;;;;;;;;;24.41;37.27;99522.49;1820058;79;20119;-52
2023/05/03 06:18:35;;;;;;;;;;;;;;;24.42;37.30;99524.98;1836131;78;20223;-53
2023/05/03 06:21:23;;;;;;;;;;;;;;;24.44;37.33;99521.98;1840876;78;20123;-55
2023/05/03 06:24:10;;;;;;;;;;;;;;;24.44;37.32;99523.35;1838330;77;20155;-51
2023/05/03 06:26:59;;;;;;;;;;;;;;;24.43;37.39;99519.80;1830607;77;20204;-51
2023/05/03 06:29:48;;;;;;;;;;;;;;;24.45;37.37;99519.01;1848729;78;20119;-53
2023/05/03 06:32:38;;;;;;;;;;;;;;;24.44;37.41;99514.58;1849632;78;20150;-54
2023/05/03 06:35:27;;;;;;;;;;;;;;;24.44;37.41;99509.62;1820135;79;20192;-50
2023/05/03 06:38:14;;;;;;;;;;;;;;;24.43;37.45;99499.20;1843413;78;20130;-49
2023/05/03 06:41:02;;;;;;;;;;;;;;;24.43;37.50;99512.94;1836795;78;20144;-53
2023/05/03 06:43:50;;;;;;;;;;;;;;;24.44;37.49;99513.74;1843311;78;20179;-53
2023/05/03 06:46:38;;;;;;;;;;;;;;;24.43;37.49;99512.09;1820187;79;20124;-53
2023/05/03 06:49:25;;;;;;;;;;;;;;;24.42;37.44;99512.63;1842260;78;20160;-52
2023/05/03 06:52:12;;;;;;;;;;;;;;;24.43;37.50;99507.44;1844500;78;20127;-49
2023/05/03 06:55:00;;;;;;;;;;;;;;;24.44;37.49;99507.72;1827852;78;20224;-54
2023/05/03 06:57:48;;;;;;;;;;;;;;;24.44;37.46;99509.09;1847749;78;20119;-54
2023/05/03 07:00:37;;;;;;;;;;;;;;;24.44;37.44;99512.38;1848590;78;20139;-51
2023/05/03 07:03:24;;;;;;;;;;;;;;;24.42;37.49;99509.04;1832844;78;20124;-50
2023/05/03 07:06:11;;;;;;;;;;;;;;;24.45;37.43;99503.06;1820025;79;20131;-53
2023/05/03 07:08:58;;;;;;;;;;;;;;;24.45;37.40;99497.58;1845472;78;20140;-51
2023/05/03 07:11:49;;;;;;;;;;;;;;;24.44;37.37;99498.11;1850792;78;20140;-51
2023/05/03 07:14:35;;;;;;;;;;;;;;;24.43;37.40;99497.83;1842438;78;20166;-52
2023/05/03 07:17:23;;;;;;;;;;;;;;;24.44;37.40;99487.12;1844545;78;20166;-51
2023/05/03 07:20:11;;;;;;;;;;;;;;;24.43;37.41;99489.59;1838283;78;20205;-53
2023/05/03 07:23:00;;;;;;;;;;;;;;;24.45;37.37;99479.73;1841234;78;20172;-53
2023/05/03 07:25:47;;;;;;;;;;;;;;;24.44;37.37;99480.26;1814221;78;20153;-52
2023/05/03 07:28:35;;;;;;;;;;;;;;;24.43;37.38;99477.23;1831055;78;20127;-53
2023/05/03 07:31:24;;;;;;;;;;;;;;;24.45;37.36;99477.82;1837057;78;20154;-52
2023/05/03 07:34:12;;;;;;;;;;;;;;;24.44;37.37;99477.52;1834719;78;20151;-52
2023/05/03 07:36:59;;;;;;;;;;;;;;;24.43;37.38;99473.66;1812901;79;20160;-50
2023/05/03 07:39:46;;;;;;;;;;;;;;;24.44;37.41;99474.77;1830155;78;20147;-50
2023/05/03 07:42:34;;;;;;;;;;;;;;;24.43;37.42;99473.12;1836738;78;20180;-52
2023/05/03 07:45:21;;;;;;;;;;;;;;;24.43;37.44;99468.16;1827741;78;20203;-49
2023/05/03 07:48:09;;;;;;;;;;;;;;;24.41;37.43;99464.27;1830690;78;20123;-53
2023/05/03 07:50:56;;;;;;;;;;;;;;;24.43;37.46;99463.51;1824743;78;20198;-50
2023/05/03 07:53:44;;;;;;;;;;;;;;;24.41;37.46;99460.15;1831797;78;20154;-53
2023/05/03 07:56:32;;;;;;;;;;;;;;;24.43;37.46;99467.63;1821736;78;20173;-52
2023/05/03 07:59:19;;;;;;;;;;;;;;;24.44;37.50;99459.66;1829130;78;20179;-52
2023/05/03 08:02:07;;;;;;;;;;;;;;;24.44;37.50;99464.31;1842000;78;20155;-53
2023/05/03 08:04:55;;;;;;;;;;;;;;;24.42;37.50;99463.73;1834429;78;20147;-52
2023/05/03 08:07:43;;;;;;;;;;;;;;;24.42;37.43;99468.70;1820822;78;20122;-53
2023/05/03 08:10:35;;;;;;;;;;;;;;;24.41;37.44;99457.41;1833773;78;20158;-52
2023/05/03 08:13:21;;;;;;;;;;;;;;;24.43;37.51;99463.51;1836597;78;20152;-51
2023/05/03 08:16:08;;;;;;;;;;;;;;;24.43;37.45;99462.67;1834552;78;20156;-50
2023/05/03 08:18:56;;;;;;;;;;;;;;;24.44;37.49;99465.16;1837010;78;20229;-53
2023/05/03 08:21:45;;;;;;;;;;;;;;;24.45;37.48;99456.39;1836120;78;20178;-53
2023/05/03 08:24:33;;;;;;;;;;;;;;;24.43;37.48;99453.90;1831883;78;20162;-53
2023/05/03 08:27:20;;;;;;;;;;;;;;;24.46;37.48;99451.17;1835382;78;20183;-50
2023/05/03 08:30:09;;;;;;;;;;;;;;;24.45;37.49;99448.15;1862443;77;20121;-53
2023/05/03 08:32:56;;;;;;;;;;;;;;;24.46;37.47;99447.89;1844702;77;20191;-52
2023/05/03 08:35:44;;;;;;;;;;;;;;;24.46;37.49;99445.67;1834529;78;20200;-54
2023/05/03 08:38:33;;;;;;;;;;;;;;;24.44;37.49;99443.19;1845213;77;20174;-55
2023/05/03 08:41:30;;;;;;;;;;;;;;;24.45;37.51;99439.38;1845197;77;20237;-50
2023/05/03 08:44:19;;;;;;;;;;;;;;;24.45;37.49;99439.91;1845495;77;20202;-50
2023/05/03 08:47:07;;;;;;;;;;;;;;;24.43;37.53;99430.56;1834604;78;20167;-52
2023/05/03 08:49:55;;;;;;;;;;;;;;;24.44;37.54;99434.95;1835362;78;20155;-53
2023/05/03 08:52:43;;;;;;;;;;;;;;;24.45;37.51;99433.05;1839511;77;20210;-52
2023/05/03 08:55:30;;;;;;;;;;;;;;;24.44;37.53;99433.58;1847199;77;20122;-48
2023/05/03 08:58:18;;;;;;;;;;;;;;;24.45;37.51;99439.38;1848416;77;20161;-54
2023/05/03 09:01:06;;;;;;;;;;;;;;;24.46;37.51;99429.20;1847746;77;20460;-51
2023/05/03 09:03:54;;;;;;;;;;;;;;;24.46;37.56;99433.32;1841708;77;20149;-51
2023/05/03 09:06:43;;;;;;;;;;;;;;;24.46;37.58;99425.08;1854818;77;20142;-52
2023/05/03 09:09:31;;;;;;;;;;;;;;;24.48;37.62;99425.70;1848876;77;20181;-49
2023/05/03 09:12:40;;;;;;;;;;;;;;;24.47;37.64;99424.86;1845242;77;20149;-51
2023/05/03 09:15:29;;;;;;;;;;;;;;;24.47;37.62;99422.11;1845698;77;20210;-51
2023/05/03 09:18:17;;;;;;;;;;;;;;;24.46;37.71;99414.10;1844518;77;20157;-53
2023/05/03 09:21:05;;;;;;;;;;;;;;;24.46;37.71;99421.80;1834646;78;20179;-51
2023/05/03 09:23:53;;;;;;;;;;;;;;;24.45;37.76;99413.29;1846184;77;20181;-53
2023/05/03 09:26:41;;;;;;;;;;;;;;;24.46;37.78;99407.23;1854849;77;20164;-48
2023/05/03 09:29:34;;;;;;;;;;;;;;;24.46;37.82;99405.33;1819951;79;20133;-50
2023/05/03 09:32:24;;;;;;;;;;;;;;;24.48;37.81;99407.84;1820067;79;20202;-52
2023/05/03 09:35:13;;;;;;;;;;;;;;;24.47;37.71;99407.54;1830787;78;20127;-51
2023/05/03 09:38:01;;;;;;;;;;;;;;;24.47;37.69;99402.89;1846631;78;20166;-52
2023/05/03 09:40:48;;;;;;;;;;;;;;;24.49;37.71;99409.49;1844442;78;20166;-52
2023/05/03 09:43:37;;;;;;;;;;;;;;;24.48;37.69;99405.09;1827977;78;20152;-50
2023/05/03 09:46:24;;;;;;;;;;;;;;;24.49;37.66;99406.75;1840303;78;20123;-52
2023/05/03 09:49:12;;;;;;;;;;;;;;;24.50;37.60;99409.27;1840965;78;20162;-54
2023/05/03 09:52:01;;;;;;;;;;;;;;;24.48;37.66;99399.05;1849338;78;20174;-54
2023/05/03 09:54:50;;;;;;;;;;;;;;;24.50;37.60;99402.94;1819967;79;20205;-54
2023/05/03 09:57:37;;;;;;;;;;;;;;;24.52;37.55;99405.72;1827745;78;20148;-50
2023/05/03 10:00:24;;;;;;;;;;;;;;;24.52;37.53;99409.00;1839699;78;20123;-53
2023/05/03 10:03:14;;;;;;;;;;;;;;;24.52;37.51;99405.72;1842883;78;20150;-53
2023/05/03 10:06:03;;;;;;;;;;;;;;;24.54;37.56;99404.93;1819973;79;20158;-53
2023/05/03 10:08:53;;;;;;;;;;;;;;;24.52;37.51;99398.86;1841892;78;20162;-53
2023/05/03 10:11:41;;;;;;;;;;;;;;;24.53;37.46;99396.39;1825475;78;20182;-53
2023/05/03 10:14:29;;;;;;;;;;;;;;;24.53;37.46;99399.13;1849597;78;20165;-49
2023/05/03 10:17:18;;;;;;;;;;;;;;;24.55;37.45;99395.59;1844944;78;20175;-54
2023/05/03 10:20:10;;;;;;;;;;;;;;;24.55;37.45;99394.22;1846302;78;20208;-55
2023/05/03 10:23:10;;;;;;;;;;;;;;;24.56;37.46;99400.55;1849164;78;20148;-50
2023/05/03 10:25:59;;;;;;;;;;;;;;;24.52;37.42;99379.63;1819946;79;20178;-53
2023/05/03 10:28:48;;;;;;;;;;;;;;;24.53;37.46;99382.66;1820072;78;20182;-52
2023/05/03 10:31:49;;;;;;;;;;;;;;;24.55;37.44;99383.23;1825407;78;20154;-52
2023/05/03 10:34:39;;;;;;;;;;;;;;;24.55;37.46;99379.68;1827592;78;20125;-51
2023/05/03 10:37:27;;;;;;;;;;;;;;;24.50;37.56;99369.45;1837740;78;20127;-52
2023/05/03 10:40:16;;;;;;;;;;;;;;;24.54;37.49;99374.72;1819892;79;20193;-52
2023/05/03 10:43:03;;;;;;;;;;;;;;;24.51;37.48;99371.09;1845926;78;20162;-53
2023/05/03 10:45:51;;;;;;;;;;;;;;;24.51;37.52;99366.97;1828549;78;20142;-51
2023/05/03 10:48:39;;;;;;;;;;;;;;;24.50;37.52;99368.07;1819568;79;20131;-49
2023/05/03 10:51:32;;;;;;;;;;;;;;;24.53;37.54;99369.45;1820076;79;20156;-53
2023/05/03 10:54:20;;;;;;;;;;;;;;;24.50;37.55;99360.37;1836435;78;20118;-53
2023/05/03 10:57:08;;;;;;;;;;;;;;;24.49;37.54;99355.41;1840481;78;20119;-52
2023/05/03 10:59:55;;;;;;;;;;;;;;;24.51;37.53;99361.48;1842753;78;20174;-52
2023/05/03 11:02:44;;;;;;;;;;;;;;;24.52;37.51;99361.78;1840844;78;20230;-54
2023/05/03 11:05:32;;;;;;;;;;;;;;;24.52;37.54;99352.17;1841318;78;20197;-48
2023/05/03 11:08:21;;;;;;;;;;;;;;;24.52;37.50;99356.30;1843948;78;20119;-52
2023/05/03 11:11:08;;;;;;;;;;;;;;;24.53;37.47;99345.58;1819950;79;20123;-53
2023/05/03 11:13:56;;;;;;;;;;;;;;;24.52;37.50;99342.56;1838832;78;20168;-55
2023/05/03 11:16:49;;;;;;;;;;;;;;;24.52;37.50;99350.80;1845833;78;20127;-53
2023/05/03 11:19:38;;;;;;;;;;;;;;;24.53;37.47;99343.38;1838810;78;20154;-53
2023/05/03 11:22:26;;;;;;;;;;;;;;;24.53;37.47;99345.58;1820134;79;20227;-52
2023/05/03 11:25:14;;;;;;;;;;;;;;;24.53;37.47;99344.20;1843225;78;20171;-51
2023/05/03 11:28:02;;;;;;;;;;;;;;;24.54;37.47;99343.14;1825961;78;20124;-51
2023/05/03 11:30:50;;;;;;;;;;;;;;;24.53;37.52;99335.12;1849438;78;20131;-51
2023/05/03 11:33:38;;;;;;;;;;;;;;;24.52;37.48;99333.48;1820042;79;20158;-52
2023/05/03 11:36:29;;;;;;;;;;;;;;;24.55;37.50;99326.94;1841770;78;20155;-50
2023/05/03 11:39:15;;;;;;;;;;;;;;;24.56;37.43;99329.14;1836713;78;20231;-52
2023/05/03 11:42:03;;;;;;;;;;;;;;;24.52;37.50;99323.34;1833066;78;20154;-54
2023/05/03 11:44:50;;;;;;;;;;;;;;;24.54;37.46;99319.80;1848368;78;20134;-56
2023/05/03 11:47:38;;;;;;;;;;;;;;;24.54;37.50;99317.05;1847082;78;20186;-54
2023/05/03 11:50:50;;;;;;;;;;;;;;;24.55;37.49;99315.95;1819203;79;20125;-52
2023/05/03 11:53:33;;;;;;;;;;;;;;;24.56;37.43;99310.76;1836084;78;20127;-53
2023/05/03 11:56:21;;;;;;;;;;;;;;;24.54;37.44;99308.81;1829950;78;20265;-50
2023/05/03 11:59:09;;;;;;;;;;;;;;;24.52;37.48;99304.12;1846919;78;20132;-53
2023/05/03 12:01:56;;;;;;;;;;;;;;;24.53;37.44;99301.64;1845915;78;20152;-51
2023/05/03 12:04:44;;;;;;;;;;;;;;;24.55;37.45;99302.78;1850689;78;20123;-53
2023/05/03 12:07:31;;;;;;;;;;;;;;;24.56;37.44;99294.28;1845388;78;20130;-50
2023/05/03 12:10:19;;;;;;;;;;;;;;;24.55;37.46;99289.05;1837684;78;20127;-49
2023/05/03 12:13:06;;;;;;;;;;;;;;;24.56;37.44;99292.08;1833797;78;20129;-49
2023/05/03 12:15:59;;;;;;;;;;;;;;;24.56;37.44;99279.71;1819609;79;20156;-49
2023/05/03 12:19:01;;;;;;;;;;;;;;;24.57;37.42;99282.77;1826164;78;20196;-51
2023/05/03 12:21:45;;;;;;;;;;;;;;;24.56;37.45;99280.55;1840971;78;20146;-49
2023/05/03 12:24:32;;;;;;;;;;;;;;;24.56;37.44;99274.22;1849366;78;20144;-49
2023/05/03 12:27:20;;;;;;;;;;;;;;;24.55;37.50;99273.38;1819982;79;20144;-52
2023/05/03 12:30:11;;;;;;;;;;;;;;;24.51;37.48;99266.74;1844187;77;20134;-51
2023/05/03 12:33:00;;;;;;;;;;;;;;;24.58;37.44;99267.92;1847824;77;20150;-51
2023/05/03 12:35:47;;;;;;;;;;;;;;;24.57;37.44;99259.42;1839159;77;20122;-53
2023/05/03 12:38:35;;;;;;;;;;;;;;;24.57;37.43;99256.14;1823885;79;20174;-55
2023/05/03 12:41:26;;;;;;;;;;;;;;;24.58;37.43;99254.20;1901221;75;20231;-55
2023/05/03 12:44:12;;;;;;;;;;;;;;;24.57;37.43;99255.30;1898928;75;20143;-53
2023/05/03 12:46:59;;;;;;;;;;;;;;;24.56;37.44;99248.13;1904705;75;20167;-51
2023/05/03 12:49:46;;;;;;;;;;;;;;;24.57;37.44;99245.16;1898958;75;20170;-50
2023/05/03 12:52:35;;;;;;;;;;;;;;;24.58;37.45;99239.94;1899307;75;20250;-52
2023/05/03 12:55:23;;;;;;;;;;;;;;;24.59;37.40;99241.61;1903788;75;20117;-52
2023/05/03 12:58:11;;;;;;;;;;;;;;;24.58;37.43;99231.69;1892299;76;20122;-51
2023/05/03 13:00:58;;;;;;;;;;;;;;;24.59;37.42;99225.13;1901510;75;20121;-48
2023/05/03 13:03:46;;;;;;;;;;;;;;;24.57;37.43;99227.30;1919073;75;20193;-52
2023/05/03 13:06:35;;;;;;;;;;;;;;;24.59;37.44;99221.01;1894287;76;20114;-51
2023/05/03 13:09:22;;;;;;;;;;;;;;;24.60;37.39;99218.53;1891788;76;20173;-49
2023/05/03 13:12:11;;;;;;;;;;;;;;;24.59;37.39;99215.52;1899512;75;20119;-54
2023/05/03 13:15:01;;;;;;;;;;;;;;;24.61;37.43;99207.02;1903302;75;20169;-51
2023/05/03 13:17:48;;;;;;;;;;;;;;;24.61;37.42;99204.27;1892599;76;20305;-50
2023/05/03 13:20:36;;;;;;;;;;;;;;;24.62;37.36;99204.56;1910576;75;20147;-53
2023/05/03 13:23:24;;;;;;;;;;;;;;;24.61;37.39;99198.77;1911329;75;20158;-51
2023/05/03 13:26:11;;;;;;;;;;;;;;;24.61;37.39;99193.28;1910518;75;20153;-49
2023/05/03 13:29:00;;;;;;;;;;;;;;;24.61;37.39;99194.12;1902364;75;20166;-51
2023/05/03 13:31:48;;;;;;;;;;;;;;;24.62;37.42;99188.89;1914708;75;20209;-50
2023/05/03 13:34:35;;;;;;;;;;;;;;;24.64;37.35;99187.28;1912216;75;20118;-52
2023/05/03 13:37:24;;;;;;;;;;;;;;;24.60;37.33;99178.70;1908994;75;20118;-53
2023/05/03 13:40:13;;;;;;;;;;;;;;;24.65;37.34;99176.56;1891292;76;20199;-54
2023/05/03 13:43:01;;;;;;;;;;;;;;;24.65;37.34;99172.45;1899650;75;20152;-54
2023/05/03 13:45:48;;;;;;;;;;;;;;;24.64;37.37;99175.73;1921282;75;20114;-51
2023/05/03 13:48:36;;;;;;;;;;;;;;;24.65;37.32;99172.45;1892521;76;20194;-52
2023/05/03 13:51:24;;;;;;;;;;;;;;;24.64;37.32;99157.88;1896494;76;20139;-49
2023/05/03 13:54:12;;;;;;;;;;;;;;;24.65;37.31;99160.09;1912321;75;20122;-50
2023/05/03 13:57:00;;;;;;;;;;;;;;;24.65;37.32;99164.21;1894488;76;20145;-52
2023/05/03 13:59:47;;;;;;;;;;;;;;;24.66;37.36;99157.64;1892295;76;20319;-53
2023/05/03 14:02:35;;;;;;;;;;;;;;;24.66;37.41;99153.52;1897305;76;20119;-51
2023/05/03 14:05:22;;;;;;;;;;;;;;;24.66;37.35;99152.98;1893295;75;20121;-50
2023/05/03 14:08:09;;;;;;;;;;;;;;;24.66;37.34;99143.38;1905889;75;20119;-50
2023/05/03 14:10:57;;;;;;;;;;;;;;;24.66;37.32;99139.25;1900756;75;20162;-51
2023/05/03 14:13:44;;;;;;;;;;;;;;;24.65;37.33;99141.70;1902948;75;20162;-52
2023/05/03 14:16:32;;;;;;;;;;;;;;;24.66;37.30;99130.17;1903242;75;20170;-53
2023/05/03 14:19:19;;;;;;;;;;;;;;;24.67;37.28;99126.33;1905463;75;20148;-52
2023/05/03 14:22:07;;;;;;;;;;;;;;;24.66;37.28;99125.52;1912017;75;20145;-54
2023/05/03 14:24:54;;;;;;;;;;;;;;;24.69;37.29;99128.30;1912304;75;20123;-54
2023/05/03 14:27:42;;;;;;;;;;;;;;;24.68;37.24;99119.76;1910075;75;20150;-53
2023/05/03 14:30:29;;;;;;;;;;;;;;;24.69;37.21;99120.86;1900695;75;20115;-49
2023/05/03 14:33:17;;;;;;;;;;;;;;;24.68;37.17;99119.22;1906725;74;20311;-53
2023/05/03 14:36:08;;;;;;;;;;;;;;;24.69;37.14;99130.48;1921919;74;20118;-50
2023/05/03 14:38:55;;;;;;;;;;;;;;;24.70;37.18;99127.20;1921079;75;20146;-52